createdAt,value
2023-02-09T00:02:05.727Z,102569.28
2023-02-09T00:04:34.777Z,102565.31
2023-02-09T00:07:02.350Z,102571.81
2023-02-09T00:09:28.974Z,102569.91
2023-02-09T00:12:16.809Z,102572.28
2023-02-09T00:14:45.721Z,102561.22
2023-02-09T00:17:13.050Z,102556.41
2023-02-09T00:19:44.210Z,102560.56
2023-02-09T00:22:10.745Z,102563.00
2023-02-09T00:24:40.166Z,102558.97
2023-02-09T00:27:09.532Z,102553.38
2023-02-09T00:29:36.380Z,102559.41
2023-02-09T00:32:03.021Z,102562.88
2023-02-09T00:34:32.045Z,102562.81
2023-02-09T00:37:01.371Z,102559.97
2023-02-09T00:39:27.967Z,102559.66
2023-02-09T00:42:06.742Z,102550.00
2023-02-09T00:44:35.343Z,102552.25
2023-02-09T00:47:02.415Z,102551.56
2023-02-09T00:49:32.783Z,102541.88
2023-02-09T00:51:59.373Z,102542.19
2023-02-09T00:54:29.392Z,102543.97
2023-02-09T00:57:05.080Z,102539.22
2023-02-09T00:59:32.976Z,102542.25
2023-02-09T01:02:02.792Z,102532.47
2023-02-09T01:04:31.895Z,102527.50
2023-02-09T01:06:58.621Z,102529.09
2023-02-09T01:09:27.430Z,102522.16
2023-02-09T01:11:54.037Z,102527.75
2023-02-09T01:14:20.631Z,102520.47
2023-02-09T01:16:47.284Z,102515.25
2023-02-09T01:19:16.596Z,102509.75
2023-02-09T01:21:45.412Z,102510.97
2023-02-09T01:24:14.830Z,102512.03
2023-02-09T01:26:42.117Z,102511.53
2023-02-09T01:29:13.204Z,102505.94
2023-02-09T01:31:39.981Z,102498.31
2023-02-09T01:34:08.796Z,102497.53
2023-02-09T01:36:35.364Z,102493.88
2023-02-09T01:39:03.311Z,102507.44
2023-02-09T01:41:31.257Z,102491.19
2023-02-09T01:44:04.044Z,102487.00
2023-02-09T01:46:37.597Z,102482.09
2023-02-09T01:49:32.947Z,102485.19
2023-02-09T01:52:13.212Z,102482.78
2023-02-09T01:54:52.265Z,102475.41
2023-02-09T01:57:24.548Z,102476.50
2023-02-09T02:00:00.613Z,102468.53
2023-02-09T02:02:27.485Z,102467.31
2023-02-09T02:04:56.515Z,102473.50
2023-02-09T02:07:59.557Z,102468.00
2023-02-09T02:10:28.950Z,102459.50
2023-02-09T02:12:55.819Z,102461.47
2023-02-09T02:15:27.657Z,102460.19
2023-02-09T02:18:23.391Z,102458.72
2023-02-09T02:21:14.920Z,102466.84
2023-02-09T02:23:41.442Z,102462.50
2023-02-09T02:26:31.306Z,102462.41
2023-02-09T02:29:21.097Z,102451.69
2023-02-09T02:32:09.594Z,102451.53
2023-02-09T02:35:03.167Z,102450.69
2023-02-09T02:37:54.296Z,102454.06
2023-02-09T02:40:35.223Z,102454.25
2023-02-09T02:43:09.272Z,102446.31
2023-02-09T02:45:54.848Z,102447.22
2023-02-09T02:48:41.574Z,102448.56
2023-02-09T02:51:23.327Z,102443.00
2023-02-09T02:53:57.111Z,102450.53
2023-02-09T02:56:33.246Z,102445.53
2023-02-09T02:59:03.109Z,102448.13
2023-02-09T03:01:35.115Z,102444.94
2023-02-09T03:04:04.561Z,102447.53
2023-02-09T03:06:39.411Z,102453.22
2023-02-09T03:09:08.586Z,102445.44
2023-02-09T03:11:40.022Z,102451.91
2023-02-09T03:14:35.947Z,102449.31
2023-02-09T03:17:02.435Z,102451.91
2023-02-09T03:19:41.049Z,102451.59
2023-02-09T03:22:28.775Z,102457.25
2023-02-09T03:25:20.899Z,102448.97
2023-02-09T03:28:06.055Z,102451.22
2023-02-09T03:30:34.333Z,102452.22
2023-02-09T03:33:03.721Z,102453.41
2023-02-09T03:35:41.674Z,102448.91
2023-02-09T03:38:10.460Z,102459.50
2023-02-09T03:40:41.840Z,102460.63
2023-02-09T03:43:13.873Z,102462.28
2023-02-09T03:45:43.103Z,102461.59
2023-02-09T04:32:18.152Z,102457.72
2023-02-09T04:34:44.692Z,102451.09
2023-02-09T04:37:13.482Z,102459.09
2023-02-09T04:39:40.022Z,102455.91
2023-02-09T04:42:06.568Z,102444.97
2023-02-09T04:44:35.375Z,102453.41
2023-02-09T04:47:07.182Z,102445.84
2023-02-09T04:49:33.888Z,102448.38
2023-02-09T04:52:02.788Z,102437.13
2023-02-09T04:54:31.827Z,102452.94
2023-02-09T04:57:19.388Z,102447.97
2023-02-09T04:59:46.216Z,102444.75
2023-02-09T05:02:14.991Z,102450.44
2023-02-09T05:04:41.650Z,102442.91
2023-02-09T05:07:08.165Z,102438.53
2023-02-09T05:09:36.912Z,102438.59
2023-02-09T05:12:03.777Z,102446.09
2023-02-09T05:14:32.542Z,102446.88
2023-02-09T05:16:59.650Z,102439.84
2023-02-09T05:19:26.333Z,102448.38
2023-02-09T05:21:55.334Z,102451.25
2023-02-09T05:24:24.915Z,102455.19
2023-02-09T05:26:51.361Z,102468.78
2023-02-09T05:29:17.929Z,102463.84
2023-02-09T05:31:49.580Z,102456.13
2023-02-09T05:34:16.235Z,102459.63
2023-02-09T05:36:42.759Z,102451.78
2023-02-09T05:39:09.346Z,102462.13
2023-02-09T05:41:54.311Z,102457.81
2023-02-09T05:44:23.580Z,102463.38
2023-02-09T05:46:50.124Z,102447.78
2023-02-09T05:49:16.733Z,102458.34
2023-02-09T05:51:43.293Z,102462.22
2023-02-09T05:54:12.193Z,102461.72
2023-02-09T05:56:38.984Z,102467.28
2023-02-09T05:59:11.034Z,102460.28
2023-02-09T06:01:40.208Z,102456.09
2023-02-09T06:04:09.598Z,102470.47
2023-02-09T06:06:38.902Z,102469.69
2023-02-09T06:43:08.797Z,102454.59
2023-02-09T06:49:50.361Z,102464.38
2023-02-09T07:07:39.964Z,102444.28
2023-02-09T07:14:17.566Z,102457.63
2023-02-09T07:41:13.169Z,102461.44
2023-02-09T07:43:35.229Z,102457.28
2023-02-09T07:50:27.204Z,102469.31
2023-02-09T07:57:01.129Z,102441.97
2023-02-09T08:03:25.075Z,102448.31
2023-02-09T08:42:58.926Z,102442.53
2023-02-09T09:12:10.320Z,102446.34
2023-02-09T09:31:19.673Z,102429.56
2023-02-09T09:33:46.780Z,102443.72
2023-02-09T09:36:17.094Z,102438.97
2023-02-09T09:39:14.970Z,102435.81
2023-02-09T09:42:06.118Z,102438.78
2023-02-09T09:44:47.469Z,102437.59
2023-02-09T09:47:25.152Z,102448.25
2023-02-09T09:49:54.942Z,102449.75
2023-02-09T09:52:33.469Z,102447.06
2023-02-09T09:55:08.474Z,102449.75
2023-02-09T09:57:44.541Z,102450.28
2023-02-09T10:00:17.566Z,102458.56
2023-02-09T10:02:46.353Z,102451.31
2023-02-09T10:05:19.464Z,102442.38
2023-02-09T10:08:27.418Z,102445.25
2023-02-09T10:11:03.044Z,102443.56
2023-02-09T10:13:34.581Z,102439.66
2023-02-09T10:16:02.277Z,102434.63
2023-02-09T10:18:31.120Z,102432.81
2023-02-09T10:21:07.351Z,102429.22
2023-02-09T10:23:45.258Z,102419.63
2023-02-09T10:26:28.411Z,102417.28
2023-02-09T10:29:00.292Z,102413.78
2023-02-09T10:31:32.960Z,102409.88
2023-02-09T10:33:59.586Z,102416.81
2023-02-09T10:36:30.634Z,102411.94
2023-02-09T10:39:10.078Z,102413.91
2023-02-09T10:41:38.783Z,102394.81
2023-02-09T10:44:13.683Z,102400.97
2023-02-09T10:46:40.753Z,102394.75
2023-02-09T10:49:29.249Z,102378.41
2023-02-09T10:52:16.163Z,102384.75
2023-02-09T10:54:52.877Z,102383.16
2023-02-09T10:57:40.385Z,102374.06
2023-02-09T11:00:15.802Z,102370.09
2023-02-09T11:02:50.159Z,102366.91
2023-02-09T11:05:23.197Z,102366.28
2023-02-09T11:07:58.852Z,102362.25
2023-02-09T11:10:30.590Z,102363.69
2023-02-09T11:13:02.377Z,102350.81
2023-02-09T11:15:38.423Z,102352.88
2023-02-09T11:18:14.729Z,102348.19
2023-02-09T11:20:51.331Z,102343.22
2023-02-09T11:23:38.138Z,102339.13
2023-02-09T11:26:15.027Z,102336.72
2023-02-09T11:29:01.589Z,102321.91
2023-02-09T11:31:54.322Z,102319.25
2023-02-09T11:34:55.031Z,102316.44
2023-02-09T11:37:57.884Z,102317.59
2023-02-09T11:40:35.868Z,102314.31
2023-02-09T11:43:14.465Z,102308.84
2023-02-09T11:45:59.126Z,102300.59
2023-02-09T11:48:28.666Z,102298.59
2023-02-09T11:51:04.741Z,102295.47
2023-02-09T11:54:03.412Z,102293.94
2023-02-09T11:56:52.076Z,102285.88
2023-02-09T12:00:04.632Z,102297.75
2023-02-09T12:02:33.903Z,102303.31
2023-02-09T12:05:01.660Z,102293.50
2023-02-09T12:07:49.212Z,102290.22
2023-02-09T12:10:54.239Z,102291.81
2023-02-09T12:13:23.867Z,102289.16
2023-02-09T12:16:01.428Z,102280.97
2023-02-09T12:18:31.436Z,102277.22
2023-02-09T12:21:07.771Z,102278.09
2023-02-09T12:23:37.483Z,102274.47
2023-02-09T12:26:13.132Z,102276.94
2023-02-09T12:28:44.549Z,102281.66
2023-02-09T12:31:15.456Z,102272.56
2023-02-09T12:33:45.011Z,102264.41
2023-02-09T12:36:12.726Z,102262.66
2023-02-09T12:38:55.966Z,102269.53
2023-02-09T12:41:32.046Z,102265.66
2023-02-09T12:44:26.035Z,102257.13
2023-02-09T12:46:55.064Z,102258.13
2023-02-09T12:49:32.673Z,102258.94
2023-02-09T12:52:02.231Z,102255.63
2023-02-09T12:54:40.684Z,102252.91
2023-02-09T12:57:16.411Z,102246.09
2023-02-09T13:00:03.614Z,102237.63
2023-02-09T13:02:36.317Z,102241.28
2023-02-09T13:05:14.419Z,102241.41
2023-02-09T13:08:03.065Z,102243.66
2023-02-09T13:10:59.429Z,102231.25
2023-02-09T13:13:32.178Z,102235.56
2023-02-09T13:16:04.656Z,102230.28
2023-02-09T13:19:08.422Z,102228.69
2023-02-09T13:25:16.604Z,102223.69
2023-02-09T13:27:46.794Z,102225.06
2023-02-09T13:30:33.469Z,102222.63
2023-02-09T13:33:06.171Z,102222.56
2023-02-09T13:36:09.166Z,102202.13
2023-02-09T13:38:45.639Z,102186.88
2023-02-09T13:44:57.395Z,102193.19
2023-02-09T13:47:28.892Z,102215.84
2023-02-09T13:50:00.407Z,102215.22
2023-02-09T13:52:42.727Z,102208.50
2023-02-09T13:55:25.181Z,102206.97
2023-02-09T14:01:29.742Z,102200.72
2023-02-09T14:03:59.097Z,102202.63
2023-02-09T14:06:25.487Z,102204.78
2023-02-09T14:09:25.386Z,102204.16
2023-02-09T14:11:53.459Z,102209.47
2023-02-09T14:14:51.106Z,102197.53
2023-02-09T14:17:39.966Z,102203.88
2023-02-09T14:23:19.412Z,102194.16
2023-02-09T14:26:04.077Z,102191.44
2023-02-09T14:28:30.791Z,102192.09
2023-02-09T14:31:00.686Z,102185.91
2023-02-09T14:33:37.257Z,102191.50
2023-02-09T14:36:06.215Z,102186.16
2023-02-09T14:39:17.317Z,102197.97
2023-02-09T14:42:18.222Z,102187.53
2023-02-09T14:45:07.818Z,102188.41
2023-02-09T14:47:44.044Z,102188.41
2023-02-09T14:53:31.197Z,102178.00
2023-02-09T14:55:58.257Z,102190.72
2023-02-09T14:58:33.296Z,102194.78
2023-02-09T15:01:28.611Z,102186.91
2023-02-09T15:04:00.320Z,102187.19
2023-02-09T15:06:33.142Z,102185.91
2023-02-09T15:09:06.932Z,102188.94
2023-02-09T15:11:53.228Z,102192.00
2023-02-09T15:14:27.861Z,102192.66
2023-02-09T15:16:54.430Z,102191.59
2023-02-09T15:19:22.937Z,102188.69
2023-02-09T15:22:05.485Z,102196.03
2023-02-09T15:24:36.016Z,102189.28
2023-02-09T15:27:02.960Z,102186.38
2023-02-09T15:29:30.534Z,102180.50
2023-02-09T15:31:57.101Z,102185.31
2023-02-09T15:34:25.892Z,102194.59
2023-02-09T15:36:52.517Z,102189.59
2023-02-09T15:39:25.188Z,102191.78
2023-02-09T15:42:12.861Z,102191.50
2023-02-09T15:44:57.710Z,102198.97
2023-02-09T15:47:42.411Z,102196.59
2023-02-09T15:50:11.935Z,102186.50
2023-02-09T16:19:30.727Z,102201.44
2023-02-09T16:22:03.084Z,102194.75
2023-02-09T16:24:55.781Z,102178.81
2023-02-09T16:27:30.803Z,102192.78
2023-02-09T16:30:25.128Z,102193.44
2023-02-09T16:32:51.941Z,102192.63
2023-02-09T16:42:55.639Z,102170.31
2023-02-09T16:49:26.668Z,102190.97
2023-02-09T16:51:57.363Z,102195.50
2023-02-09T16:54:27.731Z,102191.97
2023-02-09T16:56:54.866Z,102203.06
2023-02-09T16:59:37.950Z,102196.72
2023-02-09T17:02:32.575Z,102197.00
2023-02-09T17:05:00.724Z,102197.81
2023-02-09T17:07:56.951Z,102193.03
2023-02-09T17:10:52.171Z,102196.31
2023-02-09T17:13:25.134Z,102199.94
2023-02-09T17:19:35.682Z,102169.22
2023-02-09T17:22:12.695Z,102163.19
2023-02-09T17:24:50.466Z,102183.75
2023-02-09T17:27:44.275Z,102188.16
2023-02-09T17:30:17.850Z,102174.25
2023-02-09T17:33:06.747Z,102170.91
2023-02-09T17:36:07.185Z,102181.00
2023-02-09T17:38:35.728Z,102182.50
2023-02-09T17:41:06.315Z,102184.72
2023-02-09T17:43:44.645Z,102187.88
2023-02-09T17:46:58.282Z,102189.66
2023-02-09T17:49:08.205Z,102174.94
2023-02-09T17:51:52.921Z,102161.13
2023-02-09T17:54:21.780Z,102173.91
2023-02-09T17:56:48.591Z,102171.84
2023-02-09T17:59:19.743Z,102172.75
2023-02-09T18:01:52.264Z,102177.47
2023-02-09T18:04:24.879Z,102177.47
2023-02-09T18:07:10.884Z,102175.41
2023-02-09T18:12:49.711Z,102179.13
2023-02-09T18:15:43.273Z,102177.19
2023-02-09T18:18:10.900Z,102175.44
2023-02-09T18:20:40.236Z,102177.19
2023-02-09T18:23:12.249Z,102181.09
2023-02-09T18:25:41.505Z,102178.09
2023-02-09T18:28:08.295Z,102190.41
2023-02-09T18:30:39.439Z,102183.09
2023-02-09T18:33:10.061Z,102189.19
2023-02-09T18:35:44.951Z,102192.63
2023-02-09T18:38:14.236Z,102194.44
2023-02-09T18:40:40.949Z,102189.19
2023-02-09T18:43:07.775Z,102192.63
2023-02-09T18:45:39.069Z,102189.34
2023-02-09T18:48:05.792Z,102186.97
2023-02-09T18:50:32.574Z,102183.44
2023-02-09T18:53:03.467Z,102183.13
2023-02-09T18:55:32.176Z,102192.78
2023-02-09T18:58:01.004Z,102190.25
2023-02-09T19:00:30.537Z,102186.22
2023-02-09T19:02:58.407Z,102183.63
2023-02-09T19:05:32.416Z,102183.06
2023-02-09T19:08:01.551Z,102177.44
2023-02-09T19:10:29.554Z,102170.88
2023-02-09T19:12:56.401Z,102177.72
2023-02-09T19:15:25.893Z,102170.56
2023-02-09T19:17:53.934Z,102171.97
2023-02-09T19:20:29.208Z,102171.50
2023-02-09T19:22:58.429Z,102174.19
2023-02-09T19:25:27.866Z,102168.84
2023-02-09T19:27:54.459Z,102172.13
2023-02-09T19:30:38.656Z,102174.22
2023-02-09T19:33:07.467Z,102170.63
2023-02-09T19:35:34.068Z,102162.88
2023-02-09T19:38:00.672Z,102164.97
2023-02-09T19:40:36.568Z,102165.25
2023-02-09T19:43:04.958Z,102171.22
2023-02-09T19:45:36.359Z,102163.84
2023-02-09T19:48:09.614Z,102165.03
2023-02-09T19:50:37.001Z,102179.56
2023-02-09T19:53:07.051Z,102170.97
2023-02-09T19:55:35.944Z,102169.22
2023-02-09T19:58:02.524Z,102173.91
2023-02-09T20:00:33.895Z,102175.41
2023-02-09T20:03:03.079Z,102183.50
2023-02-09T20:05:32.076Z,102180.22
2023-02-09T20:07:58.763Z,102187.16
2023-02-09T20:10:27.556Z,102184.38
2023-02-09T20:12:56.619Z,102184.94
2023-02-09T20:15:25.495Z,102190.88
2023-02-09T20:17:52.112Z,102185.81
2023-02-09T20:20:18.673Z,102193.59
2023-02-09T20:22:50.474Z,102183.19
2023-02-09T20:25:17.734Z,102180.50
2023-02-09T20:27:47.824Z,102175.75
2023-02-09T20:30:16.754Z,102177.25
2023-02-09T20:32:43.454Z,102190.63
2023-02-09T20:35:10.945Z,102185.56
2023-02-09T20:37:37.954Z,102182.56
2023-02-09T20:40:06.069Z,102177.84
2023-02-09T20:42:51.355Z,102180.50
2023-02-09T20:45:39.078Z,102173.69
2023-02-09T20:48:06.929Z,102158.53
2023-02-09T20:50:34.007Z,102161.63
2023-02-09T20:53:01.654Z,102150.81
2023-02-09T20:55:30.961Z,102157.63
2023-02-09T20:57:57.667Z,102166.22
2023-02-09T21:00:24.312Z,102171.00
2023-02-09T21:02:55.526Z,102171.28
2023-02-09T21:05:22.197Z,102165.63
2023-02-09T21:07:50.485Z,102184.00
2023-02-09T21:10:17.334Z,102176.56
2023-02-09T21:12:43.878Z,102170.06
2023-02-09T21:15:10.500Z,102177.50
2023-02-09T21:17:37.211Z,102178.56
2023-02-09T21:20:05.975Z,102167.72
2023-02-09T21:22:37.107Z,102172.44
2023-02-09T21:25:06.160Z,102178.50
2023-02-09T21:27:35.145Z,102170.31
2023-02-09T21:30:01.795Z,102170.34
2023-02-09T21:32:28.381Z,102168.25
2023-02-09T21:34:58.053Z,102174.34
2023-02-09T21:37:24.660Z,102182.19
2023-02-09T21:39:51.315Z,102187.50
2023-02-09T21:42:26.238Z,102185.09
2023-02-09T21:44:58.209Z,102181.84
2023-02-09T21:47:26.661Z,102175.56
2023-02-09T21:49:58.516Z,102179.91
2023-02-09T21:52:29.882Z,102176.56
2023-02-09T21:54:58.703Z,102172.53
2023-02-09T21:57:26.424Z,102163.63
2023-02-09T21:59:53.334Z,102168.47
2023-02-09T22:02:20.380Z,102168.97
2023-02-09T22:04:57.560Z,102158.88
2023-02-09T22:07:40.023Z,102170.78
2023-02-09T22:10:07.234Z,102166.72
2023-02-09T22:12:39.819Z,102172.56
2023-02-09T22:15:06.791Z,102166.28
2023-02-09T22:17:37.064Z,102166.63
2023-02-09T22:20:06.876Z,102157.75
2023-02-09T22:22:33.501Z,102158.63
2023-02-09T22:25:02.506Z,102158.38
2023-02-09T22:27:29.092Z,102156.88
2023-02-09T22:29:58.709Z,102150.38
2023-02-09T22:32:27.477Z,102152.75
2023-02-09T22:34:54.033Z,102153.50
2023-02-09T22:37:20.596Z,102163.16
2023-02-09T22:39:49.353Z,102160.22
2023-02-09T22:42:15.923Z,102161.41
2023-02-09T22:44:42.514Z,102165.28
2023-02-09T22:47:09.088Z,102163.50
2023-02-09T22:49:35.651Z,102166.84
2023-02-09T22:52:04.312Z,102162.75
2023-02-09T22:54:30.859Z,102157.66
2023-02-09T22:56:57.413Z,102152.94
2023-02-09T22:59:26.449Z,102164.72
2023-02-09T23:01:57.536Z,102155.75
2023-02-09T23:04:26.441Z,102154.38
2023-02-09T23:06:55.413Z,102149.81
2023-02-09T23:09:24.799Z,102159.91
2023-02-09T23:11:51.587Z,102161.25
2023-02-09T23:14:18.855Z,102156.44
2023-02-09T23:16:46.065Z,102155.25
2023-02-09T23:19:16.298Z,102157.91
2023-02-09T23:21:45.319Z,102151.44
2023-02-09T23:24:14.680Z,102147.72
2023-02-09T23:26:41.313Z,102151.91
2023-02-09T23:29:10.202Z,102148.66
2023-02-09T23:31:36.914Z,102143.63
2023-02-09T23:34:04.169Z,102138.78
2023-02-09T23:36:32.535Z,102137.03
2023-02-09T23:39:02.463Z,102142.06
2023-02-09T23:41:29.370Z,102139.41
2023-02-09T23:43:56.394Z,102147.19
2023-02-09T23:46:27.360Z,102147.81
2023-02-09T23:48:55.682Z,102142.94
2023-02-09T23:51:30.188Z,102152.09
2023-02-09T23:54:03.254Z,102152.22
2023-02-09T23:56:37.036Z,102135.63
2023-02-09T23:59:06.069Z,102140.78
